Time;durP1;ratioP1;P1;durP2;ratioP2;P2;SDS_P1;SDS_P2;PMS_P1;PMS_P2;Temp;Humidity;BMP_temperature;BMP_pressure;BME280_temperature;BME280_humidity;BME280_pressure;Samples;Min_cycle;Max_cycle;Signal;HPM_P1;HPM_P2
2022/04/28 00:01:08;;;;;;;;;;;;;;;4.43;100.00;102956.06;2613574;36;20012;-48
2022/04/28 00:03:36;;;;;;;;;;;;;;;4.38;100.00;102951.72;2613826;36;19981;-51
2022/04/28 00:06:06;;;;;;;;;;;;;;;4.38;100.00;102956.19;2613627;36;20069;-48
2022/04/28 00:08:34;;;;;;;;;;;;;;;4.35;100.00;102953.63;2613856;36;20034;-49
2022/04/28 00:11:02;;;;;;;;;;;;;;;4.30;100.00;102963.53;2613368;36;20065;-50
2022/04/28 00:13:30;;;;;;;;;;;;;;;4.31;100.00;102958.16;2597853;36;19950;-48
2022/04/28 00:15:59;;;;;;;;;;;;;;;4.23;100.00;102967.31;2613706;36;20021;-51
2022/04/28 00:18:27;;;;;;;;;;;;;;;4.19;100.00;102962.03;2613318;36;20063;-51
2022/04/28 00:20:55;;;;;;;;;;;;;;;4.18;100.00;102962.97;2613949;36;19994;-50
2022/04/28 00:23:25;;;;;;;;;;;;;;;4.12;100.00;102963.16;2614056;31;20037;-48
2022/04/28 00:25:53;;;;;;;;;;;;;;;4.17;100.00;102961.22;2612876;31;19969;-49
2022/04/28 00:28:21;;;;;;;;;;;;;;;4.18;100.00;102962.97;2613311;36;20527;-49
2022/04/28 00:30:49;;;;;;;;;;;;;;;4.14;100.00;102965.78;2613403;36;21254;-51
2022/04/28 00:33:17;;;;;;;;;;;;;;;4.12;100.00;102967.59;2613939;36;20430;-50
2022/04/28 00:35:45;;;;;;;;;;;;;;;4.05;100.00;102956.25;2612994;36;20058;-50
2022/04/28 00:38:14;;;;;;;;;;;;;;;4.06;100.00;102963.28;2613156;36;20000;-51
2022/04/28 00:40:45;;;;;;;;;;;;;;;4.01;100.00;102962.56;2613201;36;20045;-49
2022/04/28 00:43:26;;;;;;;;;;;;;;;4.04;100.00;102965.16;2613417;36;19947;-49
2022/04/28 00:45:54;;;;;;;;;;;;;;;4.02;100.00;102956.34;2614034;36;19961;-49
2022/04/28 00:51:04;;;;;;;;;;;;;;;3.97;100.00;102960.88;2613139;36;19969;-50
2022/04/28 00:53:33;;;;;;;;;;;;;;;3.88;100.00;102962.00;2613359;36;19977;-50
2022/04/28 00:56:04;;;;;;;;;;;;;;;3.90;100.00;102967.28;2612883;36;19968;-48
2022/04/28 00:58:32;;;;;;;;;;;;;;;3.89;100.00;102970.88;2613445;31;19954;-52
2022/04/28 01:01:00;;;;;;;;;;;;;;;3.85;100.00;102970.09;2613639;36;20037;-50
2022/04/28 01:03:30;;;;;;;;;;;;;;;3.86;100.00;102969.19;2613316;36;20037;-50
2022/04/28 01:05:58;;;;;;;;;;;;;;;3.83;100.00;102961.28;2613296;36;20033;-49
2022/04/28 01:08:26;;;;;;;;;;;;;;;3.95;100.00;102976.06;2613127;31;19977;-51
2022/04/28 01:10:55;;;;;;;;;;;;;;;3.91;100.00;102964.59;2612986;31;20045;-49
2022/04/28 01:13:25;;;;;;;;;;;;;;;3.98;100.00;102970.66;2613842;36;19947;-53
2022/04/28 01:15:54;;;;;;;;;;;;;;;3.93;100.00;102968.09;2613395;36;19974;-50
2022/04/28 01:18:22;;;;;;;;;;;;;;;3.85;100.00;102965.63;2613452;36;19950;-48
2022/04/28 01:20:50;;;;;;;;;;;;;;;3.82;100.00;102964.84;2613618;36;20017;-53
2022/04/28 01:23:21;;;;;;;;;;;;;;;3.81;100.00;102974.63;2613859;36;19966;-48
2022/04/28 01:25:49;;;;;;;;;;;;;;;3.83;100.00;102964.81;2612919;36;20047;-47
2022/04/28 01:28:17;;;;;;;;;;;;;;;3.78;100.00;102958.72;2613183;31;19954;-50
2022/04/28 01:30:45;;;;;;;;;;;;;;;3.78;100.00;102958.72;2613621;36;19950;-48
2022/04/28 01:33:13;;;;;;;;;;;;;;;3.75;100.00;102963.25;2612958;36;20045;-50
2022/04/28 01:35:41;;;;;;;;;;;;;;;3.71;100.00;102962.47;2613140;36;20045;-50
2022/04/28 01:38:09;;;;;;;;;;;;;;;3.67;100.00;102960.78;2613299;31;20578;-48
2022/04/28 01:40:39;;;;;;;;;;;;;;;3.65;100.00;102962.59;2613326;31;20429;-48
2022/04/28 01:43:07;;;;;;;;;;;;;;;3.62;100.00;102966.25;2612212;36;19954;-50
2022/04/28 01:45:35;;;;;;;;;;;;;;;3.60;100.00;102970.72;2612854;36;20030;-49
2022/04/28 01:48:04;;;;;;;;;;;;;;;3.57;100.00;102964.59;2612508;36;19985;-50
2022/04/28 01:50:34;;;;;;;;;;;;;;;3.56;100.00;102973.50;2612644;36;19957;-53
2022/04/28 01:55:46;;;;;;;;;;;;;;;3.48;100.00;102961.25;2612761;36;19958;-54
2022/04/28 01:58:14;;;;;;;;;;;;;;;3.46;100.00;102971.06;2613593;36;20483;-49
2022/04/28 02:00:42;;;;;;;;;;;;;;;3.40;100.00;102965.91;2613642;31;20636;-50
2022/04/28 02:03:10;;;;;;;;;;;;;;;3.43;100.00;102972.91;2612875;36;20062;-51
2022/04/28 02:05:38;;;;;;;;;;;;;;;3.37;100.00;102967.75;2613161;36;20045;-48
2022/04/28 02:08:07;;;;;;;;;;;;;;;3.36;100.00;102969.56;2613267;36;20046;-51
2022/04/28 02:10:35;;;;;;;;;;;;;;;3.32;100.00;102960.75;2614225;36;19958;-48
2022/04/28 02:13:09;;;;;;;;;;;;;;;3.28;100.00;102966.19;2614659;54;20029;-49
2022/04/28 02:15:37;;;;;;;;;;;;;;;3.32;100.00;102970.53;2613427;36;19955;-49
2022/04/28 02:18:06;;;;;;;;;;;;;;;3.25;100.00;102975.09;2612950;36;19950;-50
2022/04/28 02:20:34;;;;;;;;;;;;;;;3.26;100.00;102976.00;2613372;36;20439;-49
2022/04/28 02:23:02;;;;;;;;;;;;;;;3.21;100.00;102972.56;2613223;36;19946;-49
2022/04/28 02:25:30;;;;;;;;;;;;;;;3.19;100.00;102985.03;2613325;36;19954;-48
2022/04/28 02:27:58;;;;;;;;;;;;;;;3.19;100.00;102990.38;2612741;36;19947;-47
2022/04/28 02:30:29;;;;;;;;;;;;;;;3.10;100.00;102981.66;2613171;36;19947;-50
2022/04/28 02:33:12;;;;;;;;;;;;;;;3.01;100.00;102984.56;2612941;36;20058;-48
2022/04/28 02:35:40;;;;;;;;;;;;;;;3.04;100.00;102987.13;2613740;36;20821;-49
2022/04/28 02:38:09;;;;;;;;;;;;;;;3.06;100.00;102984.44;2613773;36;20727;-52
2022/04/28 02:40:37;;;;;;;;;;;;;;;3.01;100.00;102989.88;2613068;36;20000;-47
2022/04/28 02:43:05;;;;;;;;;;;;;;;2.94;100.00;102980.28;2612752;36;21209;-50
2022/04/28 02:45:35;;;;;;;;;;;;;;;2.94;100.00;102990.91;2613383;36;19953;-50
2022/04/28 02:48:03;;;;;;;;;;;;;;;2.93;100.00;102990.06;2613032;36;20061;-47
2022/04/28 02:50:31;;;;;;;;;;;;;;;2.87;100.00;102989.28;2613409;31;19958;-47
2022/04/28 02:53:00;;;;;;;;;;;;;;;2.87;100.00;102983.97;2613347;36;19947;-48
2022/04/28 02:55:28;;;;;;;;;;;;;;;2.84;100.00;102981.38;2613264;36;19951;-48
2022/04/28 02:57:56;;;;;;;;;;;;;;;2.84;100.00;102981.38;2612756;36;20347;-48
2022/04/28 03:00:24;;;;;;;;;;;;;;;2.78;100.00;102988.59;2612994;36;20008;-49
2022/04/28 03:02:54;;;;;;;;;;;;;;;2.73;100.00;102987.81;2612892;36;20110;-48
2022/04/28 03:05:22;;;;;;;;;;;;;;;2.73;100.00;102986.94;2613215;36;20061;-51
2022/04/28 03:13:13;;;;;;;;;;;;;;;2.56;100.00;102984.63;2613523;36;19950;-48
2022/04/28 03:15:41;;;;;;;;;;;;;;;2.56;100.00;102989.94;2613118;36;19970;-48
2022/04/28 03:18:12;;;;;;;;;;;;;;;2.52;100.00;102989.16;2613081;31;19968;-53
2022/04/28 03:20:40;;;;;;;;;;;;;;;2.47;100.00;102984.81;2612718;36;20546;-48
2022/04/28 03:23:08;;;;;;;;;;;;;;;2.47;100.00;102979.50;2613183;36;20486;-47
2022/04/28 03:25:36;;;;;;;;;;;;;;;2.40;100.00;102984.97;2613113;36;19957;-52
2022/04/28 03:28:04;;;;;;;;;;;;;;;2.43;100.00;102990.22;2612477;36;20543;-49
2022/04/28 03:30:32;;;;;;;;;;;;;;;2.39;100.00;102993.81;2612243;36;20053;-48
2022/04/28 03:33:00;;;;;;;;;;;;;;;2.32;100.00;102994.84;2613466;31;20050;-52
2022/04/28 03:35:31;;;;;;;;;;;;;;;2.28;100.00;102980.75;2613080;36;20585;-50
2022/04/28 03:38:01;;;;;;;;;;;;;;;2.28;100.00;102986.06;2613135;36;19951;-50
2022/04/28 03:40:29;;;;;;;;;;;;;;;2.34;100.00;102990.41;2613137;36;20416;-49
2022/04/28 03:42:57;;;;;;;;;;;;;;;2.26;100.00;102979.03;2613086;31;20529;-52
2022/04/28 03:45:25;;;;;;;;;;;;;;;2.20;100.00;102988.00;2613199;31;20034;-49
2022/04/28 03:47:53;;;;;;;;;;;;;;;2.19;100.00;102985.38;2613275;36;20516;-52
2022/04/28 03:50:21;;;;;;;;;;;;;;;2.21;100.00;102986.19;2612741;36;20430;-47
2022/04/28 03:52:52;;;;;;;;;;;;;;;2.18;100.00;102988.91;2613835;36;20567;-48
2022/04/28 03:55:20;;;;;;;;;;;;;;;2.17;100.00;102988.06;2614002;31;19997;-47
2022/04/28 03:57:48;;;;;;;;;;;;;;;2.12;100.00;102989.94;2612885;36;19973;-47
2022/04/28 04:00:16;;;;;;;;;;;;;;;2.08;100.00;102997.06;2611872;36;20756;-50
2022/04/28 04:02:44;;;;;;;;;;;;;;;2.08;100.00;102988.25;2613772;36;20445;-47
2022/04/28 04:05:13;;;;;;;;;;;;;;;2.02;100.00;102994.53;2613539;36;19954;-48
2022/04/28 04:07:42;;;;;;;;;;;;;;;2.05;100.00;102994.47;2613806;36;20057;-48
2022/04/28 04:10:14;;;;;;;;;;;;;;;2.06;100.00;102996.25;2613715;36;20069;-50
2022/04/28 04:12:42;;;;;;;;;;;;;;;2.04;100.00;102997.16;2613311;36;20053;-47
2022/04/28 04:15:10;;;;;;;;;;;;;;;2.05;100.00;102989.16;2614177;36;20450;-50
2022/04/28 04:17:42;;;;;;;;;;;;;;;2.01;100.00;102990.13;2614123;36;20026;-47
2022/04/28 04:20:11;;;;;;;;;;;;;;;2.03;100.00;102993.63;2613623;36;19978;-50
2022/04/28 04:22:39;;;;;;;;;;;;;;;2.08;100.00;103004.19;2613172;31;19946;-49
2022/04/28 04:25:13;;;;;;;;;;;;;;;2.06;100.00;103001.56;2613894;36;19946;-49
2022/04/28 04:27:41;;;;;;;;;;;;;;;2.07;100.00;103002.41;2613370;36;20843;-50
2022/04/28 04:32:51;;;;;;;;;;;;;;;2.14;100.00;103012.03;2613615;36;19950;-47
2022/04/28 04:35:19;;;;;;;;;;;;;;;2.14;100.00;103005.84;2613639;36;19958;-49
2022/04/28 04:37:47;;;;;;;;;;;;;;;2.15;100.00;103015.53;2613237;31;20034;-48
2022/04/28 04:40:18;;;;;;;;;;;;;;;2.23;100.00;103009.19;2613516;36;19977;-50
2022/04/28 04:42:46;;;;;;;;;;;;;;;2.26;100.00;103005.59;2613057;36;20001;-48
2022/04/28 04:45:14;;;;;;;;;;;;;;;2.35;100.00;103013.38;2614317;31;20518;-48
2022/04/28 04:47:42;;;;;;;;;;;;;;;2.38;100.00;103007.16;2613717;36;20049;-52
2022/04/28 04:50:10;;;;;;;;;;;;;;;2.44;100.00;103007.03;2613602;36;20081;-48
2022/04/28 04:52:38;;;;;;;;;;;;;;;2.47;100.00;103011.41;2614530;31;20458;-48
2022/04/28 04:55:07;;;;;;;;;;;;;;;2.57;100.00;103020.94;2613168;36;20087;-48
2022/04/28 04:57:37;;;;;;;;;;;;;;;2.54;100.00;103018.34;2613009;31;20416;-49
2022/04/28 05:00:06;;;;;;;;;;;;;;;2.57;100.00;103026.25;2613610;36;19953;-54
2022/04/28 05:02:34;;;;;;;;;;;;;;;2.69;100.00;103027.81;2612994;36;19977;-48
2022/04/28 05:05:02;;;;;;;;;;;;;;;2.85;100.00;103031.88;2613516;36;20042;-49
2022/04/28 05:07:31;;;;;;;;;;;;;;;3.03;100.00;103035.94;2613179;36;20034;-48
2022/04/28 05:09:59;;;;;;;;;;;;;;;3.18;100.00;103039.16;2613779;31;19958;-50
2022/04/28 05:12:27;;;;;;;;;;;;;;;3.18;100.00;103042.72;2612854;36;19957;-48
2022/04/28 05:14:58;;;;;;;;;;;;;;;3.38;100.00;103041.38;2613723;36;19953;-48
2022/04/28 05:17:26;;;;;;;;;;;;;;;3.44;100.00;103043.91;2613144;31;20100;-49
2022/04/28 05:19:56;;;;;;;;;;;;;;;3.55;100.00;103047.19;2614001;36;19954;-47
2022/04/28 05:22:24;;;;;;;;;;;;;;;3.71;100.00;103054.78;2612787;36;20553;-48
2022/04/28 05:24:52;;;;;;;;;;;;;;;3.75;100.00;103056.47;2613351;36;20030;-48
2022/04/28 05:27:20;;;;;;;;;;;;;;;3.89;100.00;103061.44;2612711;36;20030;-51
2022/04/28 05:29:48;;;;;;;;;;;;;;;4.03;100.00;103069.97;2613836;36;20077;-48
2022/04/28 05:32:19;;;;;;;;;;;;;;;4.19;100.00;103059.78;2606903;36;19985;-49
2022/04/28 05:34:47;;;;;;;;;;;;;;;4.30;100.00;103064.81;2612379;36;20054;-50
2022/04/28 05:37:15;;;;;;;;;;;;;;;4.52;100.00;103066.03;2612167;36;20128;-48
2022/04/28 05:39:44;;;;;;;;;;;;;;;4.62;100.00;103063.94;2612827;36;20344;-48
2022/04/28 05:42:12;;;;;;;;;;;;;;;4.79;100.00;103065.28;2611641;36;19950;-49
2022/04/28 05:47:24;;;;;;;;;;;;;;;4.98;100.00;103065.63;2612386;36;19951;-49
2022/04/28 05:49:52;;;;;;;;;;;;;;;5.08;100.00;103067.97;2613294;36;19957;-50
2022/04/28 05:52:21;;;;;;;;;;;;;;;5.48;100.00;103067.63;2613203;31;20025;-49
2022/04/28 05:54:49;;;;;;;;;;;;;;;5.64;100.00;103076.94;2613083;36;19977;-48
2022/04/28 05:57:18;;;;;;;;;;;;;;;5.82;100.00;103080.81;2612733;36;20026;-47
2022/04/28 05:59:46;;;;;;;;;;;;;;;6.03;100.00;103076.56;2613971;36;20085;-49
2022/04/28 06:02:14;;;;;;;;;;;;;;;5.97;100.00;103077.63;2613159;36;20581;-48
2022/04/28 06:04:45;;;;;;;;;;;;;;;6.10;100.00;103086.13;2612841;36;19977;-50
2022/04/28 06:07:13;;;;;;;;;;;;;;;6.16;100.00;103084.19;2612074;36;20033;-48
2022/04/28 06:09:41;;;;;;;;;;;;;;;6.34;100.00;103098.72;2613275;36;19953;-52
2022/04/28 06:12:10;;;;;;;;;;;;;;;6.58;100.00;103092.50;2602290;36;20081;-48
2022/04/28 06:14:38;;;;;;;;;;;;;;;6.76;100.00;103092.78;2613030;36;20026;-48
2022/04/28 06:17:06;;;;;;;;;;;;;;;6.76;100.00;103095.44;2611626;36;19953;-50
2022/04/28 06:19:34;;;;;;;;;;;;;;;6.93;100.00;103098.34;2612379;36;19951;-54
2022/04/28 06:22:05;;;;;;;;;;;;;;;6.95;100.00;103093.81;2612000;36;20386;-49
2022/04/28 06:24:33;;;;;;;;;;;;;;;7.09;100.00;103101.31;2611599;36;19946;-49
2022/04/28 06:27:01;;;;;;;;;;;;;;;7.22;100.00;103106.25;2610747;36;20038;-50
2022/04/28 06:29:29;;;;;;;;;;;;;;;7.64;100.00;103111.72;2611441;36;20065;-49
2022/04/28 06:31:57;;;;;;;;;;;;;;;7.74;100.00;103105.97;2608540;36;19946;-53
2022/04/28 06:34:25;;;;;;;;;;;;;;;8.15;100.00;103106.94;2604878;31;19969;-52
2022/04/28 06:36:53;;;;;;;;;;;;;;;8.28;100.00;103106.44;2610755;36;19946;-48
2022/04/28 06:39:23;;;;;;;;;;;;;;;8.26;100.00;103114.53;2612567;36;20038;-50
2022/04/28 06:41:51;;;;;;;;;;;;;;;8.34;100.00;103107.03;2611768;36;20467;-50
2022/04/28 06:44:19;;;;;;;;;;;;;;;8.45;100.00;103103.03;2613018;36;20463;-52
2022/04/28 06:46:47;;;;;;;;;;;;;;;8.66;100.00;103112.84;2612377;36;20498;-48
2022/04/28 06:49:15;;;;;;;;;;;;;;;8.53;100.00;103114.31;2612846;36;19958;-49
2022/04/28 06:51:43;;;;;;;;;;;;;;;8.60;100.00;103113.09;2612238;31;20049;-56
2022/04/28 06:54:11;;;;;;;;;;;;;;;8.76;100.00;103103.44;2612314;36;20065;-51
2022/04/28 06:56:42;;;;;;;;;;;;;;;9.01;100.00;103109.47;2610675;36;19973;-53
2022/04/28 06:59:11;;;;;;;;;;;;;;;9.11;100.00;103108.13;2613384;36;20432;-50
2022/04/28 07:01:39;;;;;;;;;;;;;;;8.98;100.00;103113.19;2612059;36;19950;-54
2022/04/28 07:04:07;;;;;;;;;;;;;;;8.90;100.00;103110.84;2611608;36;19950;-48
2022/04/28 07:06:35;;;;;;;;;;;;;;;8.94;100.00;103111.59;2612623;36;19954;-50
2022/04/28 07:09:03;;;;;;;;;;;;;;;9.19;100.00;103113.16;2612397;36;20401;-48
2022/04/28 07:11:31;;;;;;;;;;;;;;;9.36;100.00;103118.59;2609759;36;20121;-49
2022/04/28 07:14:01;;;;;;;;;;;;;;;9.52;100.00;103123.25;2611216;36;20434;-48
2022/04/28 07:16:29;;;;;;;;;;;;;;;9.82;100.00;103127.13;2612734;36;20454;-49
2022/04/28 07:18:57;;;;;;;;;;;;;;;10.13;100.00;103131.00;2611598;36;19951;-48
2022/04/28 07:21:25;;;;;;;;;;;;;;;10.07;100.00;103131.31;2612344;31;20388;-49
2022/04/28 07:23:53;;;;;;;;;;;;;;;10.43;100.00;103133.09;2612180;36;20133;-49
2022/04/28 07:26:21;;;;;;;;;;;;;;;10.24;100.00;103138.50;2610998;36;20050;-51
2022/04/28 07:28:49;;;;;;;;;;;;;;;10.10;100.00;103141.91;2612382;36;20505;-49
2022/04/28 07:31:20;;;;;;;;;;;;;;;10.50;100.00;103139.03;2610620;36;20413;-49
2022/04/28 07:33:48;;;;;;;;;;;;;;;10.44;100.00;103140.22;2608029;36;19969;-50
2022/04/28 07:36:16;;;;;;;;;;;;;;;10.39;100.00;103146.78;2605524;36;19950;-54
2022/04/28 07:38:44;;;;;;;;;;;;;;;9.99;100.00;103142.41;2612471;36;19953;-49
2022/04/28 07:41:13;;;;;;;;;;;;;;;9.93;100.00;103147.25;2611903;31;19973;-52
2022/04/28 07:43:41;;;;;;;;;;;;;;;10.51;100.00;103140.75;2612856;36;19958;-54
2022/04/28 07:46:09;;;;;;;;;;;;;;;10.36;100.00;103147.81;2612742;36;20357;-50
2022/04/28 07:48:40;;;;;;;;;;;;;;;10.22;100.00;103147.59;2612265;36;20030;-50
2022/04/28 07:51:08;;;;;;;;;;;;;;;10.23;100.00;103152.03;2612954;31;19950;-54
2022/04/28 07:53:36;;;;;;;;;;;;;;;10.39;100.00;103152.19;2612823;36;20078;-49
2022/04/28 07:56:14;;;;;;;;;;;;;;;10.54;100.00;103153.19;2610984;36;19985;-50
2022/04/28 07:58:43;;;;;;;;;;;;;;;10.47;100.00;103158.91;2613387;36;19950;-54
2022/04/28 08:01:11;;;;;;;;;;;;;;;10.69;100.00;103161.34;2613065;31;20572;-55
2022/04/28 08:03:41;;;;;;;;;;;;;;;10.87;100.00;103166.72;2612658;36;20454;-50
2022/04/28 08:06:13;;;;;;;;;;;;;;;10.91;100.00;103153.94;2611340;31;19947;-55
2022/04/28 08:08:41;;;;;;;;;;;;;;;10.87;100.00;103159.50;2613194;36;19954;-53
2022/04/28 08:11:09;;;;;;;;;;;;;;;11.10;100.00;103156.53;2610744;36;19988;-50
2022/04/28 08:13:38;;;;;;;;;;;;;;;11.41;100.00;103163.84;2612960;36;19953;-54
2022/04/28 08:16:06;;;;;;;;;;;;;;;11.87;100.00;103172.03;2611295;36;19951;-50
2022/04/28 08:18:36;;;;;;;;;;;;;;;11.92;100.00;103175.34;2611904;36;19947;-49
2022/04/28 08:21:08;;;;;;;;;;;;;;;12.06;100.00;103176.41;2612572;36;19946;-49
2022/04/28 08:23:37;;;;;;;;;;;;;;;12.50;100.00;103180.13;2612820;36;19972;-62
2022/04/28 08:26:05;;;;;;;;;;;;;;;12.31;100.00;103170.44;2611811;36;19950;-55
2022/04/28 08:28:33;;;;;;;;;;;;;;;12.58;97.83;103167.91;2610858;36;19954;-51
2022/04/28 08:31:01;;;;;;;;;;;;;;;12.73;93.07;103165.22;2612788;36;19950;-50
2022/04/28 08:33:29;;;;;;;;;;;;;;;12.71;89.79;103164.47;2611199;36;19947;-53
2022/04/28 08:35:58;;;;;;;;;;;;;;;12.59;90.46;103157.97;2610317;36;20176;-52
2022/04/28 08:38:28;;;;;;;;;;;;;;;12.82;100.00;103163.81;2612260;36;19947;-51
2022/04/28 08:41:00;;;;;;;;;;;;;;;12.56;100.00;103161.72;2606533;36;20453;-52
2022/04/28 08:43:30;;;;;;;;;;;;;;;12.70;98.09;103168.13;2611738;36;19993;-50
2022/04/28 08:48:44;;;;;;;;;;;;;;;12.86;96.85;103166.22;2611970;36;19970;-53
2022/04/28 08:51:12;;;;;;;;;;;;;;;12.06;100.00;103179.09;2611920;31;20109;-51
2022/04/28 08:53:44;;;;;;;;;;;;;;;12.20;99.49;103178.28;2612383;36;20034;-51
2022/04/28 08:56:12;;;;;;;;;;;;;;;12.42;100.00;103175.19;2611830;36;20440;-49
2022/04/28 08:58:40;;;;;;;;;;;;;;;12.87;100.00;103167.13;2612136;36;20006;-55
2022/04/28 09:01:08;;;;;;;;;;;;;;;13.26;100.00;103162.88;2611994;36;20415;-49
2022/04/28 09:03:36;;;;;;;;;;;;;;;13.13;89.78;103163.66;2612125;36;19981;-50
2022/04/28 09:06:17;;;;;;;;;;;;;;;12.27;98.74;103166.16;2612405;36;20439;-50
2022/04/28 09:08:48;;;;;;;;;;;;;;;12.29;100.00;103174.19;2612191;36;20318;-53
2022/04/28 09:11:20;;;;;;;;;;;;;;;12.19;99.08;103166.63;2610925;36;19973;-51
2022/04/28 09:16:37;;;;;;;;;;;;;;;12.00;100.00;103155.13;2612833;36;19959;-54
2022/04/28 09:19:05;;;;;;;;;;;;;;;12.00;100.00;103160.53;2613415;36;20065;-50
2022/04/28 09:21:35;;;;;;;;;;;;;;;12.23;100.00;103168.19;2612283;36;20038;-55
2022/04/28 09:24:06;;;;;;;;;;;;;;;12.54;100.00;103157.38;2611781;36;19954;-50
2022/04/28 09:26:35;;;;;;;;;;;;;;;12.64;100.00;103149.59;2613099;36;20053;-49
2022/04/28 09:29:05;;;;;;;;;;;;;;;12.60;96.62;103155.19;2612343;36;20038;-55
2022/04/28 09:31:36;;;;;;;;;;;;;;;12.30;97.75;103146.22;2612125;36;20126;-54
2022/04/28 09:34:08;;;;;;;;;;;;;;;12.46;100.00;103147.03;2611752;36;20080;-54
2022/04/28 09:36:36;;;;;;;;;;;;;;;12.83;95.32;103147.50;2612971;36;19978;-55
2022/04/28 09:39:07;;;;;;;;;;;;;;;13.00;94.51;103145.56;2611084;36;19979;-50
2022/04/28 09:44:18;;;;;;;;;;;;;;;13.37;100.00;103149.56;2611756;36;19969;-55
2022/04/28 09:46:47;;;;;;;;;;;;;;;13.28;88.71;103140.16;2612029;31;19968;-53
2022/04/28 09:49:18;;;;;;;;;;;;;;;13.48;89.67;103140.75;2607463;36;20038;-53
2022/04/28 09:51:47;;;;;;;;;;;;;;;13.44;96.75;103152.72;2606289;36;19950;-53
2022/04/28 09:54:18;;;;;;;;;;;;;;;13.46;90.50;103148.97;2608406;31;20988;-56
2022/04/28 09:56:46;;;;;;;;;;;;;;;13.46;90.26;103138.16;2612942;36;19996;-50
2022/04/28 09:59:15;;;;;;;;;;;;;;;13.51;93.22;103134.28;2611316;31;20050;-54
2022/04/28 10:01:43;;;;;;;;;;;;;;;13.53;96.58;103135.94;2611225;36;19958;-50
2022/04/28 10:04:11;;;;;;;;;;;;;;;13.51;85.18;103137.84;2606365;36;20738;-49
2022/04/28 10:06:39;;;;;;;;;;;;;;;13.18;88.43;103141.72;2612674;36;20466;-53
2022/04/28 10:09:12;;;;;;;;;;;;;;;13.18;90.58;103133.59;2612625;36;20507;-54
2022/04/28 10:11:43;;;;;;;;;;;;;;;13.41;88.36;103145.69;2609640;36;19950;-48
2022/04/28 10:14:12;;;;;;;;;;;;;;;13.37;91.44;103137.84;2610232;36;20008;-55
2022/04/28 10:16:42;;;;;;;;;;;;;;;13.55;85.72;103130.41;2610937;36;20038;-52
2022/04/28 10:19:13;;;;;;;;;;;;;;;13.81;93.92;103131.41;2611353;36;19946;-53
2022/04/28 10:21:44;;;;;;;;;;;;;;;13.64;85.99;103130.66;2611590;36;20046;-57
2022/04/28 10:32:38;;;;;;;;;;;;;;;13.27;88.79;103135.72;2612363;36;20121;-54
2022/04/28 10:35:08;;;;;;;;;;;;;;;13.25;94.07;103129.56;2612570;36;20099;-51
2022/04/28 10:37:38;;;;;;;;;;;;;;;13.30;100.00;103135.53;2612099;36;19950;-57
2022/04/28 10:40:07;;;;;;;;;;;;;;;13.53;95.54;103127.81;2612614;36;20034;-56
2022/04/28 10:42:50;;;;;;;;;;;;;;;13.91;92.85;103127.09;2611681;36;20403;-51
2022/04/28 10:45:25;;;;;;;;;;;;;;;14.36;91.06;103121.38;2611356;36;19954;-52
2022/04/28 10:48:14;;;;;;;;;;;;;;;13.80;87.45;103129.66;2606195;36;19950;-50
2022/04/28 10:50:42;;;;;;;;;;;;;;;14.22;83.67;103130.44;2612778;36;19970;-50
2022/04/28 10:53:13;;;;;;;;;;;;;;;14.25;84.00;103130.25;2612843;36;19982;-51
2022/04/28 10:55:44;;;;;;;;;;;;;;;13.91;85.02;103126.22;2611563;36;20081;-49
2022/04/28 10:58:30;;;;;;;;;;;;;;;13.89;84.63;103126.34;2610836;36;19954;-52
2022/04/28 11:01:01;;;;;;;;;;;;;;;13.14;92.99;103132.06;2613378;36;20419;-50
2022/04/28 11:03:46;;;;;;;;;;;;;;;14.05;86.06;103122.63;2612622;36;20011;-55
2022/04/28 11:06:14;;;;;;;;;;;;;;;14.11;86.59;103122.19;2614234;31;20074;-54
2022/04/28 11:08:46;;;;;;;;;;;;;;;14.61;81.60;103115.16;2612790;36;19957;-52
2022/04/28 11:11:14;;;;;;;;;;;;;;;14.66;76.60;103117.53;2613217;36;20431;-51
2022/04/28 11:13:48;;;;;;;;;;;;;;;13.94;80.40;103128.72;2613323;36;19958;-54
2022/04/28 11:16:20;;;;;;;;;;;;;;;13.91;83.83;103120.81;2612055;31;19950;-51
2022/04/28 11:18:48;;;;;;;;;;;;;;;14.06;87.35;103124.34;2612734;31;19985;-55
2022/04/28 11:21:17;;;;;;;;;;;;;;;14.06;85.86;103124.34;2612814;31;20386;-50
2022/04/28 11:23:46;;;;;;;;;;;;;;;14.13;82.02;103128.38;2609689;36;19958;-51
2022/04/28 11:26:14;;;;;;;;;;;;;;;14.60;82.74;103123.38;2610896;31;19951;-53
2022/04/28 11:28:43;;;;;;;;;;;;;;;14.74;79.11;103122.41;2611868;36;20034;-51
2022/04/28 11:31:15;;;;;;;;;;;;;;;14.50;77.27;103120.41;2613165;36;19950;-50
2022/04/28 11:33:48;;;;;;;;;;;;;;;14.79;79.21;103117.56;2613961;36;19947;-57
2022/04/28 11:36:17;;;;;;;;;;;;;;;15.17;74.13;103114.81;2613895;36;20018;-51
2022/04/28 11:38:50;;;;;;;;;;;;;;;15.17;70.44;103111.25;2614363;31;20057;-51
2022/04/28 11:41:18;;;;;;;;;;;;;;;15.27;70.16;103111.41;2614009;36;20054;-53
2022/04/28 11:43:47;;;;;;;;;;;;;;;15.09;72.12;103114.50;2612083;36;19953;-55
2022/04/28 11:46:16;;;;;;;;;;;;;;;15.47;73.04;103118.97;2613090;31;20080;-53
2022/04/28 11:48:47;;;;;;;;;;;;;;;15.70;70.15;103109.13;2611540;36;20030;-55
2022/04/28 11:51:15;;;;;;;;;;;;;;;15.80;66.69;103113.88;2610735;36;20443;-53
2022/04/28 11:53:44;;;;;;;;;;;;;;;15.24;70.07;103113.38;2609415;36;19958;-55
2022/04/28 11:56:18;;;;;;;;;;;;;;;15.62;68.91;103117.00;2609715;31;20073;-56
2022/04/28 11:58:49;;;;;;;;;;;;;;;15.00;72.26;103102.47;2609043;36;20042;-53
2022/04/28 12:01:17;;;;;;;;;;;;;;;15.70;71.76;103106.41;2612919;36;19950;-54
2022/04/28 12:03:55;;;;;;;;;;;;;;;15.55;68.60;103102.13;2613061;36;20034;-52
2022/04/28 12:06:24;;;;;;;;;;;;;;;15.84;72.18;103107.25;2613892;36;20484;-55
2022/04/28 12:08:53;;;;;;;;;;;;;;;15.84;71.15;103115.41;2609791;36;19985;-54
2022/04/28 12:19:27;;;;;;;;;;;;;;;15.20;68.86;103106.44;2613098;36;20432;-53
2022/04/28 12:22:03;;;;;;;;;;;;;;;15.18;67.98;103099.38;2611614;31;20432;-51
2022/04/28 12:24:33;;;;;;;;;;;;;;;15.72;69.39;103111.72;2612203;31;20439;-54
2022/04/28 12:27:06;;;;;;;;;;;;;;;15.89;64.50;103102.34;2611657;36;19950;-58
2022/04/28 12:29:47;;;;;;;;;;;;;;;16.16;65.05;103103.94;2611386;31;20511;-55
2022/04/28 12:32:15;;;;;;;;;;;;;;;16.28;64.92;103113.84;2612900;36;20061;-53
2022/04/28 12:34:46;;;;;;;;;;;;;;;16.57;66.09;103102.56;2612764;31;20070;-55
2022/04/28 12:37:25;;;;;;;;;;;;;;;15.75;68.63;103111.50;2612931;36;19954;-49
2022/04/28 12:39:57;;;;;;;;;;;;;;;15.75;70.18;103100.63;2613527;31;20029;-50
2022/04/28 12:42:25;;;;;;;;;;;;;;;15.89;70.72;103103.22;2612779;36;19985;-53
2022/04/28 12:44:54;;;;;;;;;;;;;;;15.61;69.50;103098.09;2613646;36;20405;-50
2022/04/28 12:47:22;;;;;;;;;;;;;;;16.33;64.05;103089.91;2612570;36;19946;-56
2022/04/28 12:49:53;;;;;;;;;;;;;;;16.26;63.52;103096.81;2613643;31;20021;-50
2022/04/28 12:52:30;;;;;;;;;;;;;;;16.38;62.52;103093.13;2612022;31;20041;-52
2022/04/28 12:55:05;;;;;;;;;;;;;;;16.66;59.21;103092.81;2613294;31;19950;-52
2022/04/28 12:57:34;;;;;;;;;;;;;;;16.48;59.82;103089.72;2614314;31;20448;-50
2022/04/28 13:00:02;;;;;;;;;;;;;;;17.10;59.22;103083.84;2613419;31;20442;-54
2022/04/28 13:02:32;;;;;;;;;;;;;;;17.74;58.49;103078.63;2611156;36;19955;-52
2022/04/28 13:05:12;;;;;;;;;;;;;;;17.07;58.73;103077.78;2613465;36;20484;-51
2022/04/28 13:07:40;;;;;;;;;;;;;;;16.55;62.47;103071.91;2611241;36;19947;-51
2022/04/28 13:10:09;;;;;;;;;;;;;;;17.33;59.22;103072.94;2614407;36;20343;-53
2022/04/28 13:12:37;;;;;;;;;;;;;;;17.32;60.43;103076.63;2610267;36;20463;-55
2022/04/28 13:15:06;;;;;;;;;;;;;;;16.75;57.81;103067.59;2612086;36;19950;-56
2022/04/28 13:17:36;;;;;;;;;;;;;;;17.12;58.94;103075.53;2612759;36;19963;-54
2022/04/28 13:20:04;;;;;;;;;;;;;;;17.42;57.44;103069.44;2613363;36;20414;-55
2022/04/28 13:22:35;;;;;;;;;;;;;;;17.65;57.11;103061.19;2612772;36;19997;-53
2022/04/28 13:25:03;;;;;;;;;;;;;;;17.30;54.94;103062.31;2612869;31;20045;-51
2022/04/28 13:27:31;;;;;;;;;;;;;;;17.24;56.48;103052.78;2612610;36;19962;-55